Etusivu
METAR-TAF:

METAR-TAF

Lentoasemat :

Malmön lentoasema

Malmö, Ruotsi

Leveyspiiri: 55-33N, Pituuspiiri: 013-22E, korkeus merenpinnasta: 106 m

Tämänhetkinen sää

Tämä raportti tehtiin 34 minuuttia sitten, kello 22.50 UTC
Tuuli 12 kn lännestä/luoteesta
Lämpötila 15°C
Kosteus 88%
Ilmanpaine 1009 hPa
Näkyvyys 10 km tai enemmän
Hajanaisia pilviä 1500 ft:n korkeudessa
Hajonneita pilviä 2000 ft:n korkeudessa

METAR: ESMS 222250Z 29012KT 9999 SCT015 BKN020 15/13 Q1009

Aika: 01:24 (23:24 UTC)

Sääennuste

Tämä raportti tehtiin 3 tuntia ja 21 minuuttia sitten, kello 20.03 UTC
Ennuste voimassa 22. päivästä klo 21 UTC - 23. päivään klo 21 UTC
Tuuli 10 kn lännestä
Näkyvyys 10 km tai enemmän
Hajonneita pilviä 1500 ft:n korkeudessa
Ajoittain
22. päivästä klo 21 UTC - 23. päivään klo 12 UTC
Hajonneita pilviä 1000 ft:n korkeudessa

TAF: ESMS 222003Z 2221/2321 28010KT 9999 BKN015 TEMPO 2221/2312 BKN010

Säähavainnot ja -ennusteet yli 4000 lentoasemalta (METAR- ja TAF-raportit).

Käytössä olevat sääasemat on merkitty karttaan keltaisilla ja punaisilla pisteillä.

Aseta hiiri pisteen päälle nähdäksesi sääaseman nimen.

Klikkaa sitten nähdäksesi säähavainnot ja -ennusteet.

Kartan vaihtaminen: klikkaa mustalla rastilla varustettuja vihreitä pisteitä, niin voit zoomata sisään; viivalla varustettua vihreää pistettä, niin voit zoomata ulos tai vihreitä nuolia, niin pääset viereisille kartoille.


METAR-TAF: